Providence, Illinois
Current Conditions -  °F | °C
As of 2:55 AM on Monday 20 Oct 2014 (Local Time) from KC75 Reporting Station
Clear Clear  
Wind Chill: 52°   Ceiling: Unl
Heat Index: 52°   Visibility: 10mi
Dew Point: 45°   Wind: 6mph
Humidity: 78%   Direction: 210°SSW
Pressure: 29.87"   Gusts: NA
Location:  41.2776°N, 89.5099°W
Report Text: KC75 200755Z AUTO 21005KT 10SM CLR 11/07 A2987 RMK AO2 T01090072
Loading
Personal Weather Stations






























Interactive Weather Map
Tropical Storm Tracking
New forecast layout! Learn more

10-Day Weather Forecast

Advertisements
Track Severe Weather on mobile